Aviation Digital Data Service (ADDS)

Output produced by METARs form (1350 UTC 26 May 2018)
found at http://www.aviationweather.gov/adds/metars/
 
VGEG 261200Z 21004KT 6000 FEW018 SCT120 31/27 Q1003 NOSIG
TAF VGEG 260500Z 2606/2712 22010KT 5000 HZ SCT017 SCT100 
     BECMG 2612/2614 24007KT 4500 HZ SCT017 BKN100 
     BECMG 2622/2624 18004KT 4000 HZ SCT015 SCT100 
     BECMG 2703/2705 23010KT 5000 HZ SCT018 SCT100